createdAt,value
2022-10-04T00:01:10.667Z,89.06
2022-10-04T00:03:43.903Z,89.50
2022-10-04T00:06:21.114Z,89.75
2022-10-04T00:08:59.166Z,90.37
2022-10-04T00:11:30.950Z,90.51
2022-10-04T00:14:00.528Z,90.47
2022-10-04T00:16:40.905Z,90.51
2022-10-04T00:19:20.076Z,91.26
2022-10-04T00:21:53.494Z,91.41
2022-10-04T00:24:28.667Z,91.62
2022-10-04T00:27:20.314Z,91.05
2022-10-04T00:30:02.170Z,91.28
2022-10-04T00:32:30.198Z,91.15
2022-10-04T00:34:59.777Z,91.52
2022-10-04T00:37:28.316Z,91.75
2022-10-04T00:40:01.226Z,91.54
2022-10-04T00:43:03.458Z,91.43
2022-10-04T00:46:02.577Z,91.53
2022-10-04T00:48:34.519Z,91.35
2022-10-04T00:51:04.989Z,91.44
2022-10-04T00:53:39.040Z,91.67
2022-10-04T00:56:12.108Z,91.65
2022-10-04T00:58:55.227Z,92.10
2022-10-04T01:01:26.180Z,91.59
2022-10-04T01:03:56.993Z,91.83
2022-10-04T01:06:24.168Z,91.76
2022-10-04T01:08:53.316Z,91.71
2022-10-04T01:11:28.606Z,91.81
2022-10-04T01:14:01.562Z,91.65
2022-10-04T01:16:36.288Z,92.10
2022-10-04T01:19:21.798Z,91.53
2022-10-04T01:22:04.140Z,92.20
2022-10-04T01:24:39.425Z,92.18
2022-10-04T01:27:36.540Z,92.48
2022-10-04T01:30:09.233Z,91.79
2022-10-04T01:32:38.113Z,92.08
2022-10-04T01:35:08.173Z,91.72
2022-10-04T01:37:35.119Z,92.01
2022-10-04T01:40:02.557Z,91.75
2022-10-04T01:43:00.996Z,91.58
2022-10-04T01:45:40.754Z,91.58
2022-10-04T01:48:19.263Z,91.35
2022-10-04T01:51:04.832Z,91.59
2022-10-04T01:53:40.784Z,92.12
2022-10-04T01:56:14.986Z,91.91
2022-10-04T01:58:47.103Z,91.99
2022-10-04T02:01:27.886Z,91.73
2022-10-04T02:04:10.180Z,92.18
2022-10-04T02:06:42.856Z,92.17
2022-10-04T02:09:38.998Z,92.24
2022-10-04T02:12:06.941Z,92.17
2022-10-04T02:14:36.957Z,91.72
2022-10-04T02:17:11.023Z,91.04
2022-10-04T02:19:42.385Z,90.87
2022-10-04T02:22:10.835Z,90.81
2022-10-04T02:24:42.196Z,90.69
2022-10-04T02:27:08.908Z,90.41
2022-10-04T02:29:35.645Z,89.96
2022-10-04T02:32:24.294Z,89.82
2022-10-04T02:34:52.016Z,89.69
2022-10-04T02:37:18.776Z,89.69
2022-10-04T02:39:50.109Z,89.46
2022-10-04T02:42:44.812Z,89.22
2022-10-04T02:45:22.123Z,88.09
2022-10-04T02:47:55.297Z,88.00
2022-10-04T02:50:39.053Z,88.10
2022-10-04T02:53:22.388Z,88.03
2022-10-04T02:55:49.436Z,88.05
2022-10-04T02:58:21.272Z,88.21
2022-10-04T03:00:57.114Z,88.25
2022-10-04T03:03:28.501Z,87.89
2022-10-04T03:05:55.069Z,86.84
2022-10-04T03:08:22.012Z,87.22
2022-10-04T03:10:50.802Z,86.71
2022-10-04T03:13:20.127Z,87.35
2022-10-04T03:15:49.652Z,87.88
2022-10-04T03:18:17.361Z,87.65
2022-10-04T03:20:45.693Z,87.66
2022-10-04T03:23:15.755Z,87.66
2022-10-04T03:26:07.196Z,87.70
2022-10-04T03:28:37.366Z,88.26
2022-10-04T03:31:04.422Z,88.44
2022-10-04T03:33:31.495Z,89.17
2022-10-04T03:36:00.904Z,89.12
2022-10-04T03:38:28.941Z,89.58
2022-10-04T03:40:59.333Z,89.87
2022-10-04T03:43:34.127Z,89.96
2022-10-04T03:46:02.309Z,90.34
2022-10-04T03:48:36.711Z,90.50
2022-10-04T03:51:06.575Z,90.75
2022-10-04T03:53:43.593Z,91.12
2022-10-04T03:56:18.934Z,91.12
2022-10-04T03:58:46.949Z,90.76
2022-10-04T04:01:32.290Z,91.02
2022-10-04T04:04:23.610Z,90.88
2022-10-04T04:06:52.637Z,90.86
2022-10-04T04:09:28.559Z,90.87
2022-10-04T04:11:57.582Z,91.20
2022-10-04T04:14:28.618Z,90.81
2022-10-04T04:17:17.325Z,91.08
2022-10-04T04:19:46.275Z,90.86
2022-10-04T04:22:18.487Z,91.19
2022-10-04T04:24:46.614Z,91.04
2022-10-04T04:27:16.978Z,90.64
2022-10-04T04:29:52.417Z,91.03
2022-10-04T04:32:24.210Z,90.77
2022-10-04T04:34:53.524Z,90.40
2022-10-04T04:37:20.746Z,90.58
2022-10-04T04:39:54.679Z,90.43
2022-10-04T04:42:36.029Z,89.21
2022-10-04T04:45:17.389Z,87.91
2022-10-04T04:47:48.010Z,87.31
2022-10-04T04:50:16.280Z,87.29
2022-10-04T04:52:47.290Z,87.05
2022-10-04T04:55:56.717Z,87.28
2022-10-04T04:58:41.542Z,87.18
2022-10-04T05:01:18.089Z,87.12
2022-10-04T05:03:44.940Z,87.16
2022-10-04T05:06:28.356Z,87.15
2022-10-04T05:08:55.062Z,87.65
2022-10-04T05:11:26.434Z,87.70
2022-10-04T05:14:09.935Z,87.83
2022-10-04T05:16:58.205Z,88.26
2022-10-04T05:19:30.562Z,88.15
2022-10-04T05:22:00.100Z,88.11
2022-10-04T05:24:31.196Z,88.11
2022-10-04T05:27:01.703Z,88.32
2022-10-04T05:29:34.418Z,88.03
2022-10-04T05:32:11.785Z,88.18
2022-10-04T05:34:41.521Z,88.11
2022-10-04T05:37:45.464Z,88.26
2022-10-04T05:40:15.111Z,87.52
2022-10-04T05:42:50.154Z,88.08
2022-10-04T05:45:31.146Z,87.63
2022-10-04T05:48:01.085Z,88.12
2022-10-04T05:50:40.630Z,88.14
2022-10-04T05:53:42.077Z,88.74
2022-10-04T05:56:30.231Z,88.95
2022-10-04T05:59:15.318Z,88.84
2022-10-04T06:01:44.907Z,89.48
2022-10-04T06:04:39.007Z,89.68
2022-10-04T06:07:31.942Z,89.81
2022-10-04T06:10:17.198Z,89.37
2022-10-04T06:12:50.383Z,89.77
2022-10-04T06:15:23.037Z,90.14
2022-10-04T06:18:14.350Z,90.06
2022-10-04T06:20:46.991Z,89.72
2022-10-04T06:23:16.990Z,89.27
2022-10-04T06:25:51.453Z,89.37
2022-10-04T06:28:35.651Z,89.33
2022-10-04T06:31:27.274Z,89.55
2022-10-04T06:34:03.119Z,88.98
2022-10-04T06:36:45.044Z,88.81
2022-10-04T06:39:32.862Z,88.12
2022-10-04T06:42:25.630Z,88.12
2022-10-04T06:45:18.076Z,87.81
2022-10-04T06:47:48.123Z,87.87
2022-10-04T06:50:30.081Z,87.51
2022-10-04T06:53:16.501Z,87.37
2022-10-04T06:56:05.634Z,87.53
2022-10-04T06:58:38.571Z,87.59
2022-10-04T07:01:14.588Z,87.87
2022-10-04T07:04:02.590Z,87.58
2022-10-04T07:06:47.757Z,88.06
2022-10-04T07:09:26.123Z,88.63
2022-10-04T07:12:04.127Z,89.00
2022-10-04T07:14:45.217Z,88.87
2022-10-04T07:17:19.487Z,88.81
2022-10-04T07:19:51.653Z,89.04
2022-10-04T07:22:41.876Z,89.13
2022-10-04T07:25:42.106Z,88.94
2022-10-04T07:28:27.152Z,89.07
2022-10-04T07:31:24.466Z,89.12
2022-10-04T07:33:56.405Z,89.51
2022-10-04T07:36:39.090Z,89.21
2022-10-04T07:39:14.554Z,89.49
2022-10-04T07:41:49.062Z,89.61
2022-10-04T07:44:39.634Z,89.50
2022-10-04T07:47:21.630Z,89.97
2022-10-04T07:49:53.647Z,90.06
2022-10-04T07:52:38.262Z,90.40
2022-10-04T07:55:28.945Z,90.28
2022-10-04T07:58:09.586Z,90.43
2022-10-04T08:00:49.601Z,90.55
2022-10-04T08:04:12.971Z,90.83
2022-10-04T08:06:46.485Z,91.10
2022-10-04T08:09:42.463Z,91.42
2022-10-04T08:12:38.402Z,91.51
2022-10-04T08:15:14.130Z,91.23
2022-10-04T08:17:44.036Z,91.25
2022-10-04T08:20:49.344Z,91.24
2022-10-04T08:23:41.005Z,91.45
2022-10-04T08:26:26.625Z,91.34
2022-10-04T08:29:36.837Z,91.46
2022-10-04T08:32:23.347Z,91.34
2022-10-04T08:35:09.430Z,91.56
2022-10-04T08:38:10.197Z,91.35
2022-10-04T08:41:18.551Z,91.39
2022-10-04T08:44:05.842Z,91.68
2022-10-04T08:46:53.252Z,91.69
2022-10-04T08:49:41.459Z,91.38
2022-10-04T08:52:08.101Z,91.57
2022-10-04T08:55:03.136Z,91.56
2022-10-04T08:57:46.834Z,91.89
2022-10-04T09:00:20.803Z,92.10
2022-10-04T09:03:20.710Z,92.60
2022-10-04T09:05:59.229Z,92.92
2022-10-04T09:08:34.883Z,93.26
2022-10-04T09:11:10.464Z,92.87
2022-10-04T09:13:56.203Z,93.16
2022-10-04T09:16:45.163Z,93.29
2022-10-04T09:19:30.381Z,92.89
2022-10-04T09:21:57.052Z,92.97
2022-10-04T09:24:37.073Z,93.02
2022-10-04T09:27:54.057Z,92.91
2022-10-04T09:30:25.265Z,92.78
2022-10-04T09:33:13.747Z,92.68
2022-10-04T09:36:17.485Z,93.15
2022-10-04T09:38:57.801Z,92.82
2022-10-04T09:41:42.415Z,92.72
2022-10-04T09:44:38.233Z,92.99
2022-10-04T09:47:43.894Z,92.98
2022-10-04T09:50:37.236Z,92.71
2022-10-04T09:53:33.078Z,93.07
2022-10-04T09:55:59.806Z,92.78
2022-10-04T09:58:51.716Z,93.04
2022-10-04T10:01:46.425Z,92.77
2022-10-04T10:04:22.019Z,92.90
2022-10-04T10:07:03.812Z,92.66
2022-10-04T10:10:08.355Z,92.78
2022-10-04T10:12:56.620Z,92.58
2022-10-04T10:15:46.259Z,92.34
2022-10-04T10:18:24.421Z,92.25
2022-10-04T10:21:18.705Z,92.17
2022-10-04T10:24:12.455Z,92.35
2022-10-04T10:26:49.639Z,92.24
2022-10-04T10:29:31.698Z,92.44
2022-10-04T10:32:20.844Z,92.48
2022-10-04T10:35:16.725Z,92.78
2022-10-04T10:38:04.934Z,92.82
2022-10-04T10:40:49.552Z,92.86
2022-10-04T10:43:21.965Z,92.62
2022-10-04T10:46:15.550Z,92.62
2022-10-04T10:49:22.220Z,92.32
2022-10-04T10:51:58.067Z,92.46
2022-10-04T10:55:03.290Z,92.34
2022-10-04T10:58:25.535Z,92.25
2022-10-04T11:01:12.532Z,92.57
2022-10-04T11:04:07.064Z,92.60
2022-10-04T11:06:52.398Z,92.65
2022-10-04T11:09:27.850Z,92.49
2022-10-04T11:12:25.579Z,92.35
2022-10-04T11:15:09.623Z,92.31
2022-10-04T11:18:02.071Z,92.27
2022-10-04T11:20:35.088Z,92.27
2022-10-04T11:23:34.507Z,91.99
2022-10-04T11:26:32.374Z,92.10
2022-10-04T11:29:29.919Z,91.96
2022-10-04T11:31:56.568Z,92.01
2022-10-04T11:34:47.889Z,92.11
2022-10-04T11:37:31.616Z,92.12
2022-10-04T11:40:32.479Z,91.92
2022-10-04T11:43:50.204Z,92.12
2022-10-04T11:46:56.908Z,91.70
2022-10-04T11:49:35.742Z,91.83
2022-10-04T11:52:17.609Z,92.12
2022-10-04T11:54:50.332Z,92.40
2022-10-04T11:57:52.494Z,92.16
2022-10-04T12:00:21.682Z,92.34
2022-10-04T12:03:10.966Z,92.09
2022-10-04T12:05:47.778Z,91.98
2022-10-04T12:08:20.675Z,92.23
2022-10-04T12:11:04.486Z,92.53
2022-10-04T12:13:43.001Z,92.41
2022-10-04T12:16:39.224Z,91.86
2022-10-04T12:19:24.999Z,91.74
2022-10-04T12:22:10.619Z,91.33
2022-10-04T12:24:59.485Z,91.58
2022-10-04T12:27:35.281Z,91.65
2022-10-04T12:30:24.279Z,92.11
2022-10-04T12:33:03.478Z,92.06
2022-10-04T12:35:48.294Z,92.37
2022-10-04T12:38:17.711Z,92.49
2022-10-04T12:41:02.925Z,92.52
2022-10-04T12:43:43.654Z,92.89
2022-10-04T12:46:16.082Z,92.88
2022-10-04T12:48:48.338Z,92.34
2022-10-04T12:51:14.992Z,92.70
2022-10-04T12:54:10.715Z,92.81
2022-10-04T12:57:13.470Z,92.91
2022-10-04T13:00:05.457Z,92.65
2022-10-04T13:02:36.263Z,93.23
2022-10-04T13:05:24.452Z,93.19
2022-10-04T13:08:00.465Z,93.41
2022-10-04T13:10:36.324Z,93.50
2022-10-04T13:13:24.497Z,93.63
2022-10-04T13:19:16.936Z,93.58
2022-10-04T13:22:26.969Z,93.90
2022-10-04T13:25:23.628Z,93.81
2022-10-04T13:28:39.383Z,93.79
2022-10-04T13:31:37.155Z,93.32
2022-10-04T13:34:22.210Z,93.21
2022-10-04T13:37:20.469Z,92.82
2022-10-04T13:39:49.890Z,92.22
2022-10-04T13:42:38.669Z,91.39
2022-10-04T13:45:20.432Z,90.36
2022-10-04T13:47:56.632Z,90.06
2022-10-04T13:50:32.466Z,90.19
2022-10-04T13:53:45.340Z,89.98
2022-10-04T13:56:33.183Z,90.08
2022-10-04T13:59:18.593Z,90.68
2022-10-04T14:02:03.273Z,90.34
2022-10-04T14:04:54.513Z,89.87
2022-10-04T14:07:58.993Z,89.76
2022-10-04T14:10:43.741Z,90.25
2022-10-04T14:13:13.013Z,89.88
2022-10-04T14:15:46.200Z,89.67
2022-10-04T14:18:37.761Z,89.60
2022-10-04T14:21:52.737Z,89.56
2022-10-04T14:24:33.258Z,89.44
2022-10-04T14:27:27.316Z,90.21
2022-10-04T14:30:24.053Z,89.41
2022-10-04T14:33:10.048Z,89.47
2022-10-04T14:35:53.336Z,87.64
2022-10-04T14:38:37.554Z,87.71
2022-10-04T14:41:41.438Z,85.43
2022-10-04T14:44:29.328Z,84.61
2022-10-04T14:47:17.466Z,82.76
2022-10-04T14:50:21.948Z,82.32
2022-10-04T14:53:09.124Z,81.75
2022-10-04T14:55:51.002Z,80.83
2022-10-04T14:58:23.416Z,81.15
2022-10-04T15:01:12.528Z,81.58
2022-10-04T15:04:11.341Z,81.80
2022-10-04T15:06:48.452Z,81.68
2022-10-04T15:09:46.898Z,82.42
2022-10-04T15:12:51.906Z,83.82
2022-10-04T15:15:18.871Z,83.20
2022-10-04T15:17:48.270Z,84.68
2022-10-04T15:20:23.068Z,85.22
2022-10-04T15:22:54.254Z,85.72
2022-10-04T15:25:47.406Z,85.26
2022-10-04T15:28:26.297Z,85.67
2022-10-04T15:31:11.093Z,85.99
2022-10-04T15:34:07.152Z,86.92
2022-10-04T15:36:47.182Z,86.47
2022-10-04T15:39:20.405Z,88.06
2022-10-04T15:42:14.571Z,88.60
2022-10-04T15:45:05.017Z,88.50
2022-10-04T15:47:51.941Z,88.75
2022-10-04T15:50:36.475Z,89.19
2022-10-04T15:53:38.603Z,89.14
2022-10-04T15:56:21.231Z,89.46
2022-10-04T15:59:08.915Z,89.40
2022-10-04T16:01:55.176Z,89.70
2022-10-04T16:04:40.653Z,90.24
2022-10-04T16:07:07.303Z,90.03
2022-10-04T16:09:47.365Z,89.68
2022-10-04T16:12:39.458Z,89.83
2022-10-04T16:15:20.786Z,90.15
2022-10-04T16:17:58.861Z,90.68
2022-10-04T16:20:25.526Z,90.23
2022-10-04T16:23:26.144Z,90.75
2022-10-04T16:25:55.595Z,90.57
2022-10-04T16:28:51.566Z,90.42
2022-10-04T16:31:27.102Z,90.81
2022-10-04T16:34:07.221Z,90.80
2022-10-04T16:36:59.011Z,91.01
2022-10-04T16:40:01.674Z,91.14
2022-10-04T16:42:41.555Z,91.45
2022-10-04T16:45:08.247Z,91.36
2022-10-04T16:47:39.597Z,91.24
2022-10-04T16:50:10.647Z,91.26
2022-10-04T16:53:04.430Z,91.45
2022-10-04T16:56:02.376Z,91.70
2022-10-04T16:58:30.709Z,90.42
2022-10-04T17:01:22.589Z,89.71
2022-10-04T17:04:04.781Z,86.74
2022-10-04T17:06:42.109Z,85.49
2022-10-04T17:09:18.789Z,83.98
2022-10-04T17:11:58.790Z,82.35
2022-10-04T17:14:31.570Z,79.79
2022-10-04T17:17:05.026Z,79.27
2022-10-04T17:19:42.739Z,78.98
2022-10-04T17:22:16.030Z,79.28
2022-10-04T17:25:12.791Z,79.19
2022-10-04T17:27:39.480Z,78.72
2022-10-04T17:30:18.190Z,79.93
2022-10-04T17:33:07.679Z,79.54
2022-10-04T17:35:53.918Z,80.26
2022-10-04T17:38:29.882Z,80.03
2022-10-04T17:41:13.132Z,81.12
2022-10-04T17:43:52.018Z,81.37
2022-10-04T17:46:55.324Z,81.65
2022-10-04T17:49:58.933Z,83.15
2022-10-04T17:52:53.046Z,84.88
2022-10-04T17:55:28.897Z,85.87
2022-10-04T17:58:22.059Z,87.17
2022-10-04T18:00:52.846Z,88.46
2022-10-04T18:03:24.622Z,89.11
2022-10-04T18:06:17.548Z,89.45
2022-10-04T18:09:04.436Z,90.25
2022-10-04T18:12:06.634Z,90.62
2022-10-04T18:14:36.466Z,91.71
2022-10-04T18:17:31.132Z,91.80
2022-10-04T18:20:39.554Z,91.59
2022-10-04T18:23:27.384Z,91.71
2022-10-04T18:26:10.904Z,92.00
2022-10-04T18:28:38.098Z,92.59
2022-10-04T18:31:34.715Z,92.14
2022-10-04T18:34:23.437Z,91.90
2022-10-04T18:37:05.775Z,91.61
2022-10-04T18:39:45.200Z,90.74
2022-10-04T18:42:29.709Z,89.65
2022-10-04T18:45:02.701Z,88.89
2022-10-04T18:47:38.163Z,88.38
2022-10-04T18:50:20.106Z,86.75
2022-10-04T18:53:02.005Z,86.38
2022-10-04T18:55:58.071Z,85.96
2022-10-04T18:59:07.811Z,84.96
2022-10-04T19:01:56.436Z,84.09
2022-10-04T19:04:32.633Z,83.74
2022-10-04T19:07:10.806Z,83.26
2022-10-04T19:10:02.313Z,82.40
2022-10-04T19:12:41.183Z,81.06
2022-10-04T19:15:13.760Z,80.86
2022-10-04T19:18:18.200Z,80.89
2022-10-04T19:20:50.627Z,80.68
2022-10-04T19:23:52.548Z,79.73
2022-10-04T19:26:32.891Z,78.88
2022-10-04T19:29:27.358Z,78.67
2022-10-04T19:32:05.308Z,78.87
2022-10-04T19:34:53.725Z,78.92
2022-10-04T19:37:33.722Z,78.82
2022-10-04T19:40:00.462Z,78.68
2022-10-04T19:42:43.813Z,78.09
2022-10-04T19:45:39.005Z,78.28
2022-10-04T19:48:23.364Z,78.01
2022-10-04T19:50:56.905Z,78.13
2022-10-04T19:53:26.892Z,78.64
2022-10-04T19:55:57.827Z,78.03
2022-10-04T19:58:45.001Z,78.25
2022-10-04T20:01:16.701Z,78.15
2022-10-04T20:03:44.142Z,78.62
2022-10-04T20:06:20.381Z,78.28
2022-10-04T20:08:47.097Z,78.27
2022-10-04T20:11:27.729Z,77.94
2022-10-04T20:14:03.397Z,77.34
2022-10-04T20:16:49.300Z,77.69
2022-10-04T20:19:29.877Z,75.64
2022-10-04T20:22:18.646Z,76.25
2022-10-04T20:24:45.209Z,75.64
2022-10-04T20:27:20.966Z,75.74
2022-10-04T20:29:54.009Z,75.82
2022-10-04T20:32:26.777Z,76.21
2022-10-04T20:34:55.281Z,76.74
2022-10-04T20:37:42.162Z,77.72
2022-10-04T20:40:09.337Z,77.33
2022-10-04T20:42:38.799Z,77.08
2022-10-04T20:45:12.010Z,77.32
2022-10-04T20:47:39.396Z,77.71
2022-10-04T20:50:43.140Z,77.07
2022-10-04T20:53:23.053Z,77.82
2022-10-04T20:55:54.032Z,77.55
2022-10-04T20:58:37.595Z,78.29
2022-10-04T21:01:37.739Z,78.88
2022-10-04T21:04:16.860Z,79.05
2022-10-04T21:06:54.501Z,79.19
2022-10-04T21:09:21.755Z,79.40
2022-10-04T21:11:51.728Z,79.79
2022-10-04T21:14:24.717Z,80.47
2022-10-04T21:17:01.442Z,81.22
2022-10-04T21:19:32.443Z,81.32
2022-10-04T21:21:59.096Z,81.52
2022-10-04T21:24:41.114Z,82.12
2022-10-04T21:27:10.796Z,82.38
2022-10-04T21:29:39.056Z,83.21
2022-10-04T21:32:06.081Z,82.71
2022-10-04T21:34:52.628Z,82.91
2022-10-04T21:37:20.141Z,83.46
2022-10-04T21:39:46.965Z,83.64
2022-10-04T21:42:13.707Z,84.46
2022-10-04T21:44:40.574Z,84.47
2022-10-04T21:47:07.282Z,85.19
2022-10-04T21:49:34.971Z,85.35
2022-10-04T21:52:01.937Z,85.38
2022-10-04T21:54:28.811Z,84.97
2022-10-04T21:56:55.547Z,85.07
2022-10-04T21:59:22.289Z,84.92
2022-10-04T22:01:49.105Z,85.33
2022-10-04T22:04:16.301Z,85.19
2022-10-04T22:06:43.341Z,85.26
2022-10-04T22:09:11.115Z,85.41
2022-10-04T22:11:37.928Z,85.72
2022-10-04T22:14:04.822Z,85.93
2022-10-04T22:16:31.707Z,85.89
2022-10-04T22:18:58.433Z,86.13
2022-10-04T22:21:25.238Z,85.96
2022-10-04T22:23:51.942Z,86.01
2022-10-04T22:26:20.950Z,86.17
2022-10-04T22:28:53.555Z,86.24
2022-10-04T22:31:27.498Z,86.08
2022-10-04T22:33:55.230Z,86.47
2022-10-04T22:36:34.851Z,86.97
2022-10-04T22:39:14.910Z,87.31
2022-10-04T22:41:47.336Z,87.43
2022-10-04T22:44:22.102Z,87.26
2022-10-04T22:46:52.754Z,88.04
2022-10-04T22:49:26.022Z,87.92
2022-10-04T22:51:54.833Z,87.96
2022-10-04T22:54:27.521Z,88.02
2022-10-04T22:56:54.462Z,88.57
2022-10-04T22:59:27.035Z,88.80
2022-10-04T23:01:53.822Z,88.94
2022-10-04T23:04:25.995Z,89.44
2022-10-04T23:06:53.472Z,90.16
2022-10-04T23:09:20.419Z,89.86
2022-10-04T23:11:47.521Z,90.31
2022-10-04T23:14:14.179Z,90.89
2022-10-04T23:16:40.958Z,91.26
2022-10-04T23:19:18.721Z,91.30
2022-10-04T23:21:47.627Z,91.58
2022-10-04T23:24:19.802Z,91.58
2022-10-04T23:26:49.543Z,91.56
2022-10-04T23:29:31.928Z,92.19
2022-10-04T23:31:58.683Z,92.16
2022-10-04T23:34:32.836Z,92.60
2022-10-04T23:37:00.001Z,92.32
2022-10-04T23:39:36.160Z,92.89
2022-10-04T23:42:15.534Z,92.98
2022-10-04T23:44:42.660Z,92.93
2022-10-04T23:47:15.199Z,93.30
2022-10-04T23:49:42.803Z,92.95
2022-10-04T23:52:24.530Z,93.09
2022-10-04T23:54:53.497Z,93.31
2022-10-04T23:57:25.899Z,93.44
2022-10-04T23:59:53.041Z,93.70
